createdAt,value
2023-05-03T00:00:50.875Z,102107.34
2023-05-03T00:03:25.436Z,102108.78
2023-05-03T00:05:56.964Z,102099.41
2023-05-03T00:08:28.296Z,102116.75
2023-05-03T00:11:00.296Z,102113.78
2023-05-03T00:13:31.591Z,102114.41
2023-05-03T00:16:03.548Z,102107.03
2023-05-03T00:18:34.946Z,102098.78
2023-05-03T00:21:07.363Z,102105.69
2023-05-03T00:23:38.632Z,102099.03
2023-05-03T00:26:09.917Z,102114.91
2023-05-03T00:28:41.441Z,102113.13
2023-05-03T00:31:12.861Z,102111.44
2023-05-03T00:33:44.224Z,102102.59
2023-05-03T00:36:15.587Z,102116.16
2023-05-03T00:38:46.886Z,102115.25
2023-05-03T00:41:18.231Z,102114.19
2023-05-03T00:43:49.656Z,102084.56
2023-05-03T00:46:21.276Z,102103.75
2023-05-03T00:48:52.774Z,102109.81
2023-05-03T00:51:27.605Z,102101.56
2023-05-03T00:53:59.049Z,102113.63
2023-05-03T00:56:32.997Z,102117.81
2023-05-03T00:59:09.523Z,102119.28
2023-05-03T01:01:40.903Z,102106.66
2023-05-03T01:04:12.533Z,102109.13
2023-05-03T01:07:00.598Z,102102.78
2023-05-03T01:09:49.066Z,102090.66
2023-05-03T01:12:38.413Z,102124.19
2023-05-03T01:15:21.020Z,102108.94
2023-05-03T01:17:59.518Z,102114.19
2023-05-03T01:20:34.620Z,102116.44
2023-05-03T01:23:14.426Z,102125.88
2023-05-03T01:25:45.693Z,102128.31
2023-05-03T01:28:16.975Z,102129.81
2023-05-03T01:30:52.311Z,102126.94
2023-05-03T01:33:35.025Z,102129.56
2023-05-03T01:36:13.590Z,102102.50
2023-05-03T01:38:45.236Z,102138.88
2023-05-03T01:41:18.240Z,102136.91
2023-05-03T01:43:51.608Z,102134.13
2023-05-03T01:46:23.113Z,102141.00
2023-05-03T01:48:54.555Z,102121.31
2023-05-03T01:51:25.851Z,102138.16
2023-05-03T01:53:57.186Z,102137.09
2023-05-03T01:56:30.528Z,102118.28
2023-05-03T01:59:02.699Z,102134.84
2023-05-03T02:01:34.074Z,102142.59
2023-05-03T02:04:05.532Z,102143.31
2023-05-03T02:06:36.833Z,102144.03
2023-05-03T02:09:08.477Z,102130.34
2023-05-03T02:11:39.785Z,102149.06
2023-05-03T02:14:12.355Z,102132.09
2023-05-03T02:16:43.721Z,102135.25
2023-05-03T02:19:15.015Z,102144.06
2023-05-03T02:21:46.325Z,102162.75
2023-05-03T02:24:17.611Z,102159.19
2023-05-03T02:26:48.864Z,102162.63
2023-05-03T02:29:20.225Z,102165.38
2023-05-03T02:31:51.479Z,102167.28
2023-05-03T02:34:23.517Z,102154.06
2023-05-03T02:36:54.814Z,102145.34
2023-05-03T02:39:26.085Z,102151.66
2023-05-03T02:41:57.457Z,102157.91
2023-05-03T02:44:28.831Z,102163.22
2023-05-03T02:47:00.397Z,102144.63
2023-05-03T02:49:31.703Z,102166.31
2023-05-03T02:52:03.424Z,102172.84
2023-05-03T02:54:34.705Z,102174.00
2023-05-03T02:57:06.419Z,102170.72
2023-05-03T02:59:37.695Z,102169.09
2023-05-03T03:02:08.984Z,102174.56
2023-05-03T03:04:40.348Z,102167.72
2023-05-03T03:07:11.660Z,102174.16
2023-05-03T03:09:42.913Z,102181.56
2023-05-03T03:12:14.273Z,102181.84
2023-05-03T03:14:45.733Z,102177.75
2023-05-03T03:17:16.997Z,102175.38
2023-05-03T03:19:48.250Z,102174.81
2023-05-03T03:22:19.610Z,102157.38
2023-05-03T03:24:51.806Z,102136.28
2023-05-03T03:27:24.008Z,102169.38
2023-05-03T03:29:55.290Z,102163.34
2023-05-03T03:32:26.552Z,102164.34
2023-05-03T03:34:57.836Z,102158.25
2023-05-03T03:37:29.149Z,102156.69
2023-05-03T03:40:00.686Z,102159.63
2023-05-03T03:42:32.122Z,102148.38
2023-05-03T03:45:04.645Z,102146.88
2023-05-03T03:47:36.014Z,102171.63
2023-05-03T03:50:07.543Z,102145.06
2023-05-03T03:52:39.052Z,102157.75
2023-05-03T03:55:11.398Z,102162.53
2023-05-03T03:57:42.659Z,102161.88
2023-05-03T04:00:14.416Z,102163.00
2023-05-03T04:02:46.929Z,102160.44
2023-05-03T04:05:18.761Z,102164.09
2023-05-03T04:07:50.083Z,102158.06
2023-05-03T04:10:21.440Z,102159.03
2023-05-03T04:12:52.779Z,102144.94
2023-05-03T04:15:24.138Z,102160.22
2023-05-03T04:17:55.596Z,102152.56
2023-05-03T04:20:27.013Z,102148.41
2023-05-03T04:22:58.564Z,102150.44
2023-05-03T04:25:31.845Z,102162.09
2023-05-03T04:28:03.760Z,102142.59
2023-05-03T04:30:35.774Z,102160.56
2023-05-03T04:33:09.480Z,102162.47
2023-05-03T04:35:41.324Z,102171.41
2023-05-03T04:38:12.599Z,102176.06
2023-05-03T04:40:43.887Z,102177.25
2023-05-03T04:43:15.577Z,102160.63
2023-05-03T04:45:46.851Z,102176.88
2023-05-03T04:48:18.184Z,102178.13
2023-05-03T04:50:49.664Z,102179.25
2023-05-03T04:53:21.172Z,102182.16
2023-05-03T04:55:52.614Z,102176.94
2023-05-03T04:58:24.265Z,102177.13
2023-05-03T05:00:55.661Z,102190.72
2023-05-03T05:03:27.012Z,102194.34
2023-05-03T05:05:58.692Z,102167.78
2023-05-03T05:08:30.289Z,102191.97
2023-05-03T05:11:04.445Z,102199.06
2023-05-03T05:13:36.240Z,102202.84
2023-05-03T05:16:07.698Z,102185.25
2023-05-03T05:18:39.130Z,102198.81
2023-05-03T05:21:10.520Z,102190.97
2023-05-03T05:23:41.960Z,102205.44
2023-05-03T05:26:13.247Z,102209.13
2023-05-03T05:28:44.529Z,102210.31
2023-05-03T05:31:15.889Z,102210.63
2023-05-03T05:33:47.431Z,102210.94
2023-05-03T05:36:18.711Z,102210.31
2023-05-03T05:38:50.112Z,102213.16
2023-05-03T05:41:21.467Z,102221.31
2023-05-03T05:43:53.214Z,102215.38
2023-05-03T05:46:24.504Z,102222.69
2023-05-03T05:48:56.081Z,102214.06
2023-05-03T05:51:27.936Z,102213.31
2023-05-03T05:53:59.213Z,102208.22
2023-05-03T05:56:30.458Z,102228.88
2023-05-03T05:59:01.769Z,102204.22
2023-05-03T06:01:34.370Z,102212.44
2023-05-03T06:04:05.641Z,102235.72
2023-05-03T06:06:37.004Z,102231.47
2023-05-03T06:09:22.962Z,102239.56
2023-05-03T06:11:55.695Z,102245.91
2023-05-03T06:14:27.075Z,102239.00
2023-05-03T06:16:59.798Z,102241.72
2023-05-03T06:19:31.234Z,102243.50
2023-05-03T06:22:02.661Z,102245.22
2023-05-03T06:24:34.051Z,102236.44
2023-05-03T06:27:05.857Z,102248.81
2023-05-03T06:29:37.150Z,102244.72
2023-05-03T06:32:08.513Z,102249.41
2023-05-03T06:34:39.782Z,102245.94
2023-05-03T06:37:11.299Z,102251.28
2023-05-03T06:39:42.584Z,102244.13
2023-05-03T06:42:13.862Z,102248.56
2023-05-03T06:44:45.452Z,102248.53
2023-05-03T06:47:16.768Z,102252.88
2023-05-03T06:49:48.138Z,102232.34
2023-05-03T06:52:19.466Z,102249.03
2023-05-03T06:54:51.150Z,102259.63
2023-05-03T06:57:22.765Z,102259.63
2023-05-03T06:59:54.047Z,102249.81
2023-05-03T07:02:26.758Z,102249.03
2023-05-03T07:04:58.176Z,102254.50
2023-05-03T07:07:29.464Z,102261.72
2023-05-03T07:10:01.115Z,102261.72
2023-05-03T07:12:32.726Z,102264.34
2023-05-03T07:15:04.247Z,102263.47
2023-05-03T07:17:35.684Z,102266.13
2023-05-03T07:20:07.697Z,102266.13
2023-05-03T07:22:39.070Z,102272.34
2023-05-03T07:25:12.162Z,102263.44
2023-05-03T07:27:44.124Z,102260.66
2023-05-03T07:30:15.658Z,102262.41
2023-05-03T07:32:47.144Z,102263.31
2023-05-03T07:35:19.358Z,102253.50
2023-05-03T07:37:50.683Z,102256.06
2023-05-03T07:40:22.254Z,102242.91
2023-05-03T07:42:53.534Z,102258.16
2023-05-03T07:45:24.946Z,102252.00
2023-05-03T07:47:56.924Z,102241.41
2023-05-03T07:50:28.313Z,102256.53
2023-05-03T07:52:59.595Z,102263.63
2023-05-03T07:55:32.916Z,102269.00
2023-05-03T07:58:04.733Z,102266.38
2023-05-03T08:00:36.142Z,102261.03
2023-05-03T08:03:07.636Z,102264.59
2023-05-03T08:05:39.192Z,102262.81
2023-05-03T08:08:10.484Z,102268.09
2023-05-03T08:10:41.933Z,102257.47
2023-05-03T08:13:13.214Z,102261.94
2023-05-03T08:15:45.916Z,102269.88
2023-05-03T08:18:17.283Z,102266.31
2023-05-03T08:20:49.173Z,102274.31
2023-05-03T08:23:22.549Z,102254.75
2023-05-03T08:25:54.659Z,102259.09
2023-05-03T08:28:26.705Z,102253.75
2023-05-03T08:30:58.224Z,102249.34
2023-05-03T08:33:29.516Z,102261.75
2023-05-03T08:36:01.601Z,102272.44
2023-05-03T08:38:34.263Z,102262.66
2023-05-03T08:41:18.799Z,102259.13
2023-05-03T08:43:54.239Z,102272.47
2023-05-03T08:46:25.974Z,102269.81
2023-05-03T08:48:58.868Z,102252.97
2023-05-03T08:51:30.357Z,102269.84
2023-05-03T08:54:01.642Z,102265.44
2023-05-03T08:56:39.186Z,102265.41
2023-05-03T08:59:11.567Z,102271.53
2023-05-03T09:01:43.496Z,102273.25
2023-05-03T09:04:15.038Z,102275.81
2023-05-03T09:06:46.629Z,102274.03
2023-05-03T09:09:31.454Z,102271.47
2023-05-03T09:12:04.165Z,102273.19
2023-05-03T09:14:43.643Z,102277.66
2023-05-03T09:17:16.905Z,102281.22
2023-05-03T09:19:53.258Z,102285.72
2023-05-03T09:22:30.858Z,102284.88
2023-05-03T09:25:02.314Z,102278.66
2023-05-03T09:27:33.586Z,102291.06
2023-05-03T09:30:19.385Z,102275.91
2023-05-03T09:32:50.841Z,102296.28
2023-05-03T09:35:22.384Z,102297.16
2023-05-03T09:37:53.640Z,102293.63
2023-05-03T09:40:25.856Z,102287.50
2023-05-03T09:43:11.524Z,102288.38
2023-05-03T09:45:42.900Z,102284.69
2023-05-03T09:48:14.394Z,102286.47
2023-05-03T09:50:46.131Z,102291.81
2023-05-03T09:53:20.416Z,102286.53
2023-05-03T09:55:52.139Z,102283.81
2023-05-03T09:58:25.748Z,102277.56
2023-05-03T10:00:57.208Z,102285.50
2023-05-03T10:03:34.287Z,102285.41
2023-05-03T10:06:11.593Z,102285.47
2023-05-03T10:08:50.633Z,102281.06
2023-05-03T10:11:26.658Z,102279.25
2023-05-03T10:13:58.067Z,102278.41
2023-05-03T10:16:32.593Z,102277.41
2023-05-03T10:19:14.541Z,102278.34
2023-05-03T10:21:59.076Z,102280.13
2023-05-03T10:24:30.437Z,102270.09
2023-05-03T10:27:02.231Z,102267.16
2023-05-03T10:29:34.383Z,102269.53
2023-05-03T10:32:06.675Z,102263.13
2023-05-03T10:34:40.248Z,102265.50
2023-05-03T10:37:11.569Z,102261.41
2023-05-03T10:39:46.568Z,102261.16
2023-05-03T10:42:22.281Z,102256.81
2023-05-03T10:44:55.069Z,102248.13
2023-05-03T10:47:26.863Z,102265.06
2023-05-03T10:50:16.626Z,102256.41
2023-05-03T10:52:48.570Z,102254.22
2023-05-03T10:55:22.263Z,102238.47
2023-05-03T10:57:57.499Z,102250.91
2023-05-03T11:00:44.426Z,102234.34
2023-05-03T11:03:36.480Z,102253.16
2023-05-03T11:06:08.411Z,102252.16
2023-05-03T11:08:40.165Z,102252.38
2023-05-03T11:11:12.662Z,102245.81
2023-05-03T11:13:44.433Z,102252.75
2023-05-03T11:16:15.792Z,102257.06
2023-05-03T11:18:48.676Z,102248.25
2023-05-03T11:21:21.080Z,102243.13
2023-05-03T11:23:52.351Z,102250.91
2023-05-03T11:26:26.184Z,102252.84
2023-05-03T11:28:57.946Z,102240.66
2023-05-03T11:31:29.274Z,102249.25
2023-05-03T11:34:00.790Z,102247.72
2023-05-03T11:36:32.776Z,102244.63
2023-05-03T11:39:05.823Z,102239.53
2023-05-03T11:41:37.401Z,102244.81
2023-05-03T11:46:47.357Z,102239.91
2023-05-03T11:49:19.775Z,102244.47
2023-05-03T11:51:54.540Z,102242.84
2023-05-03T11:54:27.642Z,102248.38
2023-05-03T11:56:59.968Z,102252.19
2023-05-03T11:59:39.019Z,102235.97
2023-05-03T12:02:13.734Z,102239.97
2023-05-03T12:05:03.446Z,102243.63
2023-05-03T12:07:37.863Z,102230.16
2023-05-03T12:10:23.826Z,102219.31
2023-05-03T12:13:02.184Z,102227.25
2023-05-03T12:15:37.537Z,102223.81
2023-05-03T12:18:11.313Z,102227.25
2023-05-03T12:21:28.972Z,102228.69
2023-05-03T12:23:34.602Z,102224.78
2023-05-03T12:26:06.181Z,102224.06
2023-05-03T12:28:39.194Z,102222.25
2023-05-03T12:33:43.700Z,102205.47
2023-05-03T12:36:15.780Z,102200.97
2023-05-03T12:38:50.363Z,102202.44
2023-05-03T12:41:52.283Z,102202.03
2023-05-03T12:44:17.026Z,102202.34
2023-05-03T12:46:52.763Z,102193.53
2023-05-03T12:49:24.779Z,102195.59
2023-05-03T12:52:11.245Z,102182.66
2023-05-03T12:54:55.712Z,102190.28
2023-05-03T12:57:30.452Z,102192.31
2023-05-03T13:00:03.762Z,102195.25
2023-05-03T13:05:15.771Z,102175.91
2023-05-03T13:07:59.022Z,102186.63
2023-05-03T13:10:30.562Z,102178.59
2023-05-03T13:13:01.883Z,102178.56
2023-05-03T13:15:35.019Z,102164.75
2023-05-03T13:18:06.528Z,102177.09
2023-05-03T13:20:38.929Z,102173.56
2023-05-03T13:23:10.277Z,102175.88
2023-05-03T13:25:41.932Z,102171.75
2023-05-03T13:28:13.198Z,102184.06
2023-05-03T13:30:44.457Z,102170.16
2023-05-03T13:33:15.799Z,102168.44
2023-05-03T13:35:48.295Z,102136.44
2023-05-03T13:38:19.631Z,102154.06
2023-05-03T13:40:50.956Z,102148.25
2023-05-03T13:43:22.219Z,102147.56
2023-05-03T13:46:00.716Z,102150.78
2023-05-03T13:48:32.679Z,102157.13
2023-05-03T13:51:11.796Z,102144.69
2023-05-03T13:53:43.055Z,102144.88
2023-05-03T13:56:14.441Z,102134.75
2023-05-03T13:58:46.178Z,102135.16
2023-05-03T14:01:17.790Z,102131.09
2023-05-03T14:03:50.101Z,102134.09
2023-05-03T14:06:23.106Z,102127.25
2023-05-03T14:08:56.083Z,102132.44
2023-05-03T14:11:28.335Z,102110.47
2023-05-03T14:14:00.141Z,102112.06
2023-05-03T14:16:41.572Z,102106.88
2023-05-03T14:19:14.345Z,102121.56
2023-05-03T14:21:49.324Z,102129.06
2023-05-03T14:24:20.899Z,102119.59
2023-05-03T14:26:52.403Z,102107.50
2023-05-03T14:29:23.700Z,102109.34
2023-05-03T14:31:56.479Z,102107.47
2023-05-03T14:34:28.941Z,102106.66
2023-05-03T14:37:00.265Z,102096.72
2023-05-03T14:39:31.566Z,102102.84
2023-05-03T14:42:03.250Z,102102.09
2023-05-03T14:44:34.661Z,102097.72
2023-05-03T14:47:07.264Z,102098.66
2023-05-03T14:49:41.013Z,102097.59
2023-05-03T14:52:12.479Z,102099.19
2023-05-03T14:54:45.006Z,102098.16
2023-05-03T14:57:16.302Z,102098.88
2023-05-03T14:59:47.698Z,102097.03
2023-05-03T15:02:19.164Z,102094.78
2023-05-03T15:04:50.480Z,102089.03
2023-05-03T15:07:21.761Z,102088.28
2023-05-03T15:09:53.024Z,102086.41
2023-05-03T15:12:24.418Z,102087.38
2023-05-03T15:14:55.694Z,102093.03
2023-05-03T15:17:27.238Z,102080.13
2023-05-03T15:19:58.614Z,102083.06
2023-05-03T15:22:29.946Z,102077.81
2023-05-03T15:25:01.238Z,102091.94
2023-05-03T15:27:32.671Z,102085.66
2023-05-03T15:30:04.728Z,102087.44
2023-05-03T15:32:36.259Z,102072.47
2023-05-03T15:35:07.980Z,102054.00
2023-05-03T15:37:39.287Z,102071.78
2023-05-03T15:40:11.852Z,102070.22
2023-05-03T15:42:43.212Z,102067.66
2023-05-03T15:45:15.503Z,102066.84
2023-05-03T15:47:46.832Z,102072.19
2023-05-03T15:50:18.655Z,102050.94
2023-05-03T15:52:49.953Z,102064.31
2023-05-03T15:55:21.190Z,102068.88
2023-05-03T15:57:53.160Z,102059.19
2023-05-03T16:00:25.515Z,102047.84
2023-05-03T16:02:57.874Z,102071.88
2023-05-03T16:05:30.480Z,102059.50
2023-05-03T16:08:01.814Z,102055.28
2023-05-03T16:10:34.338Z,102057.19
2023-05-03T16:13:05.768Z,102058.09
2023-05-03T16:15:37.655Z,102034.19
2023-05-03T16:18:09.078Z,102052.88
2023-05-03T16:20:41.117Z,102051.09
2023-05-03T16:23:12.384Z,102052.88
2023-05-03T16:25:43.663Z,102048.50
2023-05-03T16:28:15.104Z,102019.28
2023-05-03T16:30:46.493Z,102050.34
2023-05-03T16:33:18.148Z,102043.28
2023-05-03T16:35:49.967Z,102045.09
2023-05-03T16:38:21.355Z,102041.59
2023-05-03T16:40:52.682Z,102038.97
2023-05-03T16:43:24.048Z,101994.81
2023-05-03T16:46:02.459Z,102039.97
2023-05-03T16:48:34.526Z,102035.63
2023-05-03T16:51:05.972Z,102031.28
2023-05-03T16:53:37.242Z,102036.56
2023-05-03T16:56:09.009Z,102039.28
2023-05-03T16:58:40.388Z,102031.31
2023-05-03T17:01:12.101Z,102031.34
2023-05-03T17:03:43.677Z,102031.41
2023-05-03T17:06:15.988Z,102008.41
2023-05-03T17:08:47.654Z,102031.50
2023-05-03T17:11:18.978Z,102023.56
2023-05-03T17:13:50.388Z,102017.38
2023-05-03T17:16:22.782Z,102023.59
2023-05-03T17:18:54.552Z,102019.22
2023-05-03T17:21:25.905Z,102014.78
2023-05-03T17:23:57.239Z,102006.84
2023-05-03T17:26:28.516Z,102016.63
2023-05-03T17:28:59.780Z,102014.91
2023-05-03T17:31:31.096Z,102010.53
2023-05-03T17:34:02.455Z,102012.34
2023-05-03T17:36:33.935Z,102011.50
2023-05-03T17:39:05.481Z,101992.06
2023-05-03T17:41:36.989Z,102008.03
2023-05-03T17:44:08.376Z,102008.13
2023-05-03T17:46:39.971Z,101988.66
2023-05-03T17:49:11.409Z,101977.19
2023-05-03T17:51:42.710Z,101983.44
2023-05-03T17:54:14.024Z,102004.69
2023-05-03T17:56:45.485Z,102001.16
2023-05-03T17:59:16.946Z,102001.19
2023-05-03T18:01:48.438Z,101988.81
2023-05-03T18:04:19.785Z,102004.75
2023-05-03T18:06:51.415Z,101991.44
2023-05-03T18:09:25.859Z,102002.09
2023-05-03T18:11:59.862Z,102004.75
2023-05-03T18:14:34.817Z,101985.28
2023-05-03T18:17:07.347Z,101996.81
2023-05-03T18:19:43.496Z,102004.81
2023-05-03T18:22:14.716Z,102002.13
2023-05-03T18:24:46.016Z,102011.88
2023-05-03T18:27:17.417Z,102018.06
2023-05-03T18:29:48.931Z,102019.84
2023-05-03T18:32:20.214Z,101997.69
2023-05-03T18:34:51.601Z,102000.31
2023-05-03T18:37:24.715Z,102002.97
2023-05-03T18:39:56.247Z,102013.59
2023-05-03T18:42:27.664Z,102020.66
2023-05-03T18:44:58.962Z,102027.69
2023-05-03T18:47:30.564Z,102015.25
2023-05-03T18:50:04.231Z,102013.47
2023-05-03T18:52:35.768Z,102019.66
2023-05-03T18:55:07.853Z,102014.31
2023-05-03T18:57:39.140Z,102023.97
2023-05-03T19:00:11.418Z,102020.38
2023-05-03T19:02:42.945Z,102021.22
2023-05-03T19:05:15.428Z,102026.50
2023-05-03T19:07:47.912Z,102023.78
2023-05-03T19:10:19.902Z,102017.56
2023-05-03T19:12:53.278Z,102021.03
2023-05-03T19:15:25.073Z,102028.94
2023-05-03T19:17:56.767Z,102019.13
2023-05-03T19:20:28.090Z,102034.13
2023-05-03T19:22:59.515Z,102011.03
2023-05-03T19:25:31.088Z,102026.09
2023-05-03T19:28:04.294Z,102026.91
2023-05-03T19:30:35.820Z,102023.28
2023-05-03T19:33:07.203Z,102025.00
2023-05-03T19:35:39.759Z,102042.69
2023-05-03T19:38:11.226Z,102041.72
2023-05-03T19:40:57.725Z,102022.16
2023-05-03T19:43:29.234Z,102043.38
2023-05-03T19:46:00.590Z,102038.91
2023-05-03T19:48:32.395Z,102041.47
2023-05-03T19:51:05.208Z,102021.94
2023-05-03T19:53:37.672Z,102020.13
2023-05-03T19:56:09.882Z,102036.91
2023-05-03T19:58:41.270Z,102040.38
2023-05-03T20:01:12.670Z,102035.03
2023-05-03T20:03:44.063Z,102034.97
2023-05-03T20:06:15.554Z,102041.09
2023-05-03T20:08:46.886Z,102029.53
2023-05-03T20:11:19.583Z,102036.59
2023-05-03T20:13:51.404Z,102027.72
2023-05-03T20:16:26.907Z,102040.06
2023-05-03T20:18:59.237Z,102043.53
2023-05-03T20:21:31.993Z,102022.22
2023-05-03T20:24:04.714Z,102035.50
2023-05-03T20:26:37.908Z,102043.38
2023-05-03T20:29:09.220Z,102046.84
2023-05-03T20:31:40.606Z,102043.25
2023-05-03T20:34:12.235Z,102036.03
2023-05-03T20:36:43.518Z,102030.66
2023-05-03T20:39:14.806Z,102020.00
2023-05-03T20:41:46.180Z,102047.41
2023-05-03T20:44:17.459Z,102042.94
2023-05-03T20:46:48.812Z,102042.94
2023-05-03T20:49:20.150Z,102042.84
2023-05-03T20:51:51.437Z,102022.34
2023-05-03T20:54:22.869Z,102044.53
2023-05-03T20:56:54.210Z,102047.13
2023-05-03T20:59:26.496Z,102040.91
2023-05-03T21:01:57.815Z,102047.00
2023-05-03T21:04:29.130Z,102042.56
2023-05-03T21:07:00.444Z,102045.19
2023-05-03T21:09:33.152Z,102032.78
2023-05-03T21:12:04.734Z,102034.38
2023-05-03T21:14:36.024Z,102034.38
2023-05-03T21:17:08.721Z,102035.16
2023-05-03T21:19:40.214Z,102037.66
2023-05-03T21:22:11.971Z,102043.72
2023-05-03T21:24:43.269Z,102040.94
2023-05-03T21:27:14.687Z,102024.75
2023-05-03T21:29:46.213Z,102048.56
2023-05-03T21:32:17.474Z,102043.13
2023-05-03T21:34:49.538Z,102023.50
2023-05-03T21:37:20.846Z,102044.59
2023-05-03T21:40:01.080Z,102043.56
2023-05-03T21:42:33.567Z,102034.63
2023-05-03T21:45:05.560Z,102008.84
2023-05-03T21:47:36.938Z,102027.41
2023-05-03T21:50:08.391Z,102029.94
2023-05-03T21:52:40.190Z,102003.31
2023-05-03T21:55:12.073Z,102005.94
2023-05-03T21:57:43.337Z,102017.44
2023-05-03T22:00:18.668Z,102013.88
2023-05-03T22:02:50.044Z,102014.59
2023-05-03T22:05:21.463Z,102020.63
2023-05-03T22:07:52.702Z,102026.66
2023-05-03T22:10:23.975Z,102023.06
2023-05-03T22:12:55.322Z,102009.63
2023-05-03T22:15:26.667Z,102016.72
2023-05-03T22:17:58.207Z,102011.34
2023-05-03T22:20:29.594Z,102019.25
2023-05-03T22:23:00.907Z,102012.13
2023-05-03T22:25:32.522Z,102012.03
2023-05-03T22:28:04.071Z,102015.53
2023-05-03T22:30:35.346Z,102012.88
2023-05-03T22:33:07.322Z,102012.88
2023-05-03T22:35:38.691Z,101982.63
2023-05-03T22:38:09.982Z,102003.91
2023-05-03T22:40:41.394Z,101997.63
2023-05-03T22:43:12.667Z,101994.91
2023-05-03T22:45:43.988Z,101999.25
2023-05-03T22:48:15.289Z,101988.63
2023-05-03T22:50:46.637Z,101982.44
2023-05-03T22:53:17.908Z,101987.78
2023-05-03T22:56:00.609Z,101993.19
2023-05-03T22:58:32.934Z,101986.22
2023-05-03T23:01:08.833Z,101986.28
2023-05-03T23:03:41.121Z,101981.00
2023-05-03T23:06:12.581Z,101958.78
2023-05-03T23:08:43.972Z,101986.28
2023-05-03T23:11:15.874Z,101983.66
2023-05-03T23:13:47.221Z,101988.00
2023-05-03T23:16:20.041Z,101983.53
2023-05-03T23:18:53.536Z,101984.28
2023-05-03T23:21:26.140Z,101963.88
2023-05-03T23:23:57.435Z,101982.44
2023-05-03T23:26:28.996Z,101964.63
2023-05-03T23:29:00.768Z,101973.63
2023-05-03T23:31:33.404Z,101978.03
2023-05-03T23:34:06.880Z,101974.56
2023-05-03T23:36:38.159Z,101976.28
2023-05-03T23:39:09.561Z,101968.31
2023-05-03T23:41:40.969Z,101973.56
2023-05-03T23:44:12.241Z,101969.16
2023-05-03T23:46:43.659Z,101977.97
2023-05-03T23:49:14.956Z,101974.47
2023-05-03T23:51:46.537Z,101972.69
2023-05-03T23:54:17.984Z,101970.88
2023-05-03T23:56:49.300Z,101958.41
2023-05-03T23:59:20.665Z,101960.25
